Time;durP1;ratioP1;P1;durP2;ratioP2;P2;SDS_P1;SDS_P2;PMS_P1;PMS_P2;Temp;Humidity;BMP_temperature;BMP_pressure;BME280_temperature;BME280_humidity;BME280_pressure;Samples;Min_cycle;Max_cycle;Signal;HPM_P1;HPM_P2
2022/09/21 00:00:52;;;;;;;7.45;2.80;;;5.60;99.90;;;;;;5083024;28;21211;-81
2022/09/21 00:03:18;;;;;;;2.58;2.38;;;5.60;99.90;;;;;;5071752;28;20381;-81
2022/09/21 00:05:43;;;;;;;3.38;2.30;;;5.60;99.90;;;;;;5030835;28;20150;-82
2022/09/21 00:08:12;;;;;;;2.13;1.92;;;5.50;99.90;;;;;;5088043;28;20025;-80
2022/09/21 00:10:38;;;;;;;2.00;1.60;;;5.50;99.90;;;;;;5090684;28;20020;-82
2022/09/21 00:13:05;;;;;;;3.03;1.73;;;5.50;99.90;;;;;;5090448;28;20063;-81
2022/09/21 00:15:31;;;;;;;2.40;1.90;;;5.60;99.90;;;;;;5081308;28;20091;-78
2022/09/21 00:17:58;;;;;;;2.00;1.80;;;5.60;99.90;;;;;;5058103;28;20119;-81
2022/09/21 00:20:25;;;;;;;2.83;1.65;;;5.60;99.90;;;;;;5077273;28;20013;-81
2022/09/21 00:22:51;;;;;;;1.85;1.52;;;5.70;99.90;;;;;;5066685;28;20032;-81
2022/09/21 00:25:18;;;;;;;2.40;2.03;;;5.70;99.90;;;;;;5073750;28;20035;-82
2022/09/21 00:27:46;;;;;;;2.55;1.48;;;5.70;99.90;;;;;;5091117;28;20488;-81
2022/09/21 00:30:14;;;;;;;6.32;2.10;;;5.60;99.90;;;;;;5053628;28;20035;-83
2022/09/21 00:32:40;;;;;;;5.20;2.22;;;5.60;99.90;;;;;;5074133;28;20039;-78
2022/09/21 00:35:06;;;;;;;2.75;2.30;;;5.60;99.90;;;;;;5090907;28;20024;-80
2022/09/21 00:37:33;;;;;;;2.95;2.50;;;5.60;99.90;;;;;;5071494;28;20118;-81
2022/09/21 00:39:59;;;;;;;4.93;2.13;;;5.50;99.90;;;;;;5068008;28;20035;-82
2022/09/21 00:42:27;;;;;;;7.60;2.17;;;5.50;99.90;;;;;;5074197;28;20110;-81
2022/09/21 00:44:54;;;;;;;6.95;2.20;;;5.50;99.90;;;;;;5074127;28;20092;-82
2022/09/21 00:47:42;;;;;;;8.73;2.35;;;5.50;99.90;;;;;;5091002;28;20111;-81
2022/09/21 00:50:15;;;;;;;4.32;2.10;;;5.50;99.90;;;;;;5074145;28;20028;-81
2022/09/21 00:52:48;;;;;;;2.63;2.28;;;5.50;99.90;;;;;;5087995;28;20107;-80
2022/09/21 00:55:38;;;;;;;2.97;1.98;;;5.60;99.90;;;;;;5055083;28;20036;-80
2022/09/21 00:58:09;;;;;;;3.60;2.30;;;5.50;99.90;;;;;;5081865;28;22273;-81
2022/09/21 01:00:36;;;;;;;2.80;2.30;;;5.50;99.90;;;;;;5076295;28;20040;-79
2022/09/21 01:03:04;;;;;;;4.05;2.35;;;5.50;99.90;;;;;;5058127;28;20032;-82
2022/09/21 01:05:30;;;;;;;6.55;2.20;;;5.50;99.90;;;;;;5056054;28;20441;-82
2022/09/21 01:08:00;;;;;;;11.23;2.40;;;5.50;99.90;;;;;;5059995;28;20028;-82
2022/09/21 01:10:31;;;;;;;2.40;2.20;;;5.50;99.90;;;;;;5075730;28;20028;-82
2022/09/21 01:13:18;;;;;;;7.70;2.20;;;5.50;99.90;;;;;;5056275;28;20035;-80
2022/09/21 01:16:07;;;;;;;4.65;2.15;;;5.50;99.90;;;;;;5061359;28;20031;-81
2022/09/21 01:18:46;;;;;;;6.15;2.13;;;5.50;99.90;;;;;;5089914;28;20132;-80
2022/09/21 01:21:22;;;;;;;12.50;2.15;;;5.40;99.90;;;;;;5073144;28;20559;-81
2022/09/21 01:24:13;;;;;;;3.55;2.03;;;5.30;99.90;;;;;;5073258;28;20110;-81
2022/09/21 01:27:16;;;;;;;8.88;2.40;;;5.30;99.90;;;;;;5082386;28;20031;-82
2022/09/21 01:29:50;;;;;;;5.82;2.35;;;5.40;99.90;;;;;;5073196;28;20028;-80
2022/09/21 01:32:39;;;;;;;4.00;2.15;;;5.30;99.90;;;;;;5070029;28;20508;-81
2022/09/21 01:35:34;;;;;;;2.35;2.15;;;5.40;99.90;;;;;;5065349;28;20512;-81
2022/09/21 01:38:07;;;;;;;2.30;2.10;;;5.40;99.90;;;;;;5057144;28;20497;-81
2022/09/21 01:40:44;;;;;;;5.18;2.08;;;5.30;99.90;;;;;;5055921;28;20040;-82
2022/09/21 01:43:24;;;;;;;2.33;2.13;;;5.30;99.90;;;;;;5068762;28;20028;-81
2022/09/21 01:45:53;;;;;;;2.30;2.10;;;5.30;99.90;;;;;;5056956;28;20556;-79
2022/09/21 01:48:22;;;;;;;5.82;2.25;;;5.30;99.90;;;;;;5073004;28;20036;-81
2022/09/21 01:50:53;;;;;;;2.05;1.85;;;5.30;99.90;;;;;;5071361;28;20255;-80
2022/09/21 01:53:43;;;;;;;2.15;2.00;;;5.30;99.90;;;;;;5072489;28;20358;-80
2022/09/21 01:56:26;;;;;;;2.03;1.92;;;5.30;99.90;;;;;;5070228;28;20508;-81
2022/09/21 01:59:16;;;;;;;10.65;2.13;;;5.20;99.90;;;;;;5081182;28;20036;-82
2022/09/21 02:01:56;;;;;;;2.63;1.90;;;5.20;99.90;;;;;;5081317;28;20628;-81
2022/09/21 02:04:22;;;;;;;3.60;2.00;;;5.10;99.90;;;;;;5072589;28;20059;-81
2022/09/21 02:06:49;;;;;;;3.83;2.28;;;5.10;99.90;;;;;;5048232;28;20045;-81
2022/09/21 02:09:16;;;;;;;3.70;1.95;;;5.20;99.90;;;;;;5079668;28;20082;-80
2022/09/21 02:11:44;;;;;;;2.70;2.15;;;5.20;99.90;;;;;;5067940;28;20020;-79
2022/09/21 02:14:12;;;;;;;5.75;2.00;;;5.20;99.90;;;;;;5071120;28;20028;-79
2022/09/21 02:16:56;;;;;;;2.20;2.10;;;5.20;99.90;;;;;;5067585;28;20024;-79
2022/09/21 02:19:50;;;;;;;2.60;2.25;;;5.30;99.90;;;;;;5086933;28;20107;-81
2022/09/21 02:22:30;;;;;;;2.38;2.05;;;5.30;99.90;;;;;;5081697;28;20085;-79
2022/09/21 02:25:12;;;;;;;6.43;1.98;;;5.30;99.90;;;;;;5069802;28;20020;-81
2022/09/21 02:27:54;;;;;;;3.78;2.00;;;5.40;99.90;;;;;;5086375;28;20053;-79
2022/09/21 02:30:25;;;;;;;4.90;2.25;;;5.30;99.90;;;;;;5082905;28;20070;-80
2022/09/21 02:33:18;;;;;;;3.10;2.30;;;5.30;99.90;;;;;;5067700;28;20136;-81
2022/09/21 02:36:03;;;;;;;6.45;2.20;;;5.40;99.90;;;;;;5087174;28;20032;-80
2022/09/21 02:38:54;;;;;;;2.60;2.40;;;5.30;99.90;;;;;;5075963;28;20056;-79
2022/09/21 02:41:39;;;;;;;2.13;1.92;;;5.30;99.90;;;;;;5056964;28;20419;-79
2022/09/21 02:44:14;;;;;;;4.55;2.13;;;5.30;99.90;;;;;;5089085;28;20032;-79
2022/09/21 02:46:47;;;;;;;3.33;2.37;;;5.30;99.90;;;;;;5070428;28;20505;-81
2022/09/21 02:49:20;;;;;;;3.53;2.13;;;5.30;99.90;;;;;;5088412;28;20039;-79
2022/09/21 02:51:50;;;;;;;3.00;2.70;;;5.30;99.90;;;;;;5087539;28;20043;-79
2022/09/21 02:54:21;;;;;;;2.53;2.33;;;5.40;99.90;;;;;;5059334;28;20033;-81
2022/09/21 02:56:48;;;;;;;2.80;2.10;;;5.50;99.90;;;;;;5080182;28;20032;-80
2022/09/21 02:59:15;;;;;;;2.90;2.40;;;5.50;99.90;;;;;;5079316;28;20127;-81
2022/09/21 03:01:42;;;;;;;4.50;2.53;;;5.50;99.90;;;;;;5068621;28;20540;-82
2022/09/21 03:04:08;;;;;;;2.80;2.40;;;5.50;99.90;;;;;;5063756;28;20039;-81
2022/09/21 03:06:34;;;;;;;5.75;2.35;;;5.50;99.90;;;;;;5075899;28;20032;-81
2022/09/21 03:09:00;;;;;;;3.72;2.35;;;5.40;99.90;;;;;;5042137;28;20570;-80
2022/09/21 03:11:26;;;;;;;3.55;2.05;;;5.50;99.90;;;;;;5084363;28;20031;-80
2022/09/21 03:13:51;;;;;;;4.15;2.15;;;5.50;99.90;;;;;;5061144;28;20043;-81
2022/09/21 03:16:17;;;;;;;14.02;2.20;;;5.50;99.90;;;;;;5070109;28;20131;-81
2022/09/21 03:18:43;;;;;;;27.38;2.80;;;5.50;99.90;;;;;;5059212;28;20040;-82
2022/09/21 03:21:11;;;;;;;6.53;2.35;;;5.50;99.90;;;;;;5075623;28;20123;-80
2022/09/21 03:23:37;;;;;;;6.28;2.47;;;5.40;99.90;;;;;;5086676;28;20346;-81
2022/09/21 03:26:03;;;;;;;5.32;2.60;;;5.40;99.90;;;;;;5030449;28;20617;-80
2022/09/21 03:28:29;;;;;;;4.28;2.35;;;5.40;99.90;;;;;;5082906;28;20028;-80
2022/09/21 03:30:54;;;;;;;4.60;2.60;;;5.40;99.90;;;;;;5091827;28;20405;-80
2022/09/21 03:33:20;;;;;;;2.45;2.05;;;5.40;99.90;;;;;;5058647;28;20488;-80
2022/09/21 03:35:50;;;;;;;5.10;2.22;;;5.40;99.90;;;;;;5058297;28;20043;-82
2022/09/21 03:38:17;;;;;;;2.88;2.58;;;5.50;99.90;;;;;;5071595;28;20028;-80
2022/09/21 03:40:47;;;;;;;3.80;2.38;;;5.40;99.90;;;;;;5091271;28;20039;-81
2022/09/21 03:43:13;;;;;;;3.08;2.05;;;5.40;99.90;;;;;;5092742;28;20040;-79
2022/09/21 03:45:42;;;;;;;7.93;2.38;;;5.40;99.90;;;;;;5058142;28;20055;-81
2022/09/21 03:48:09;;;;;;;2.58;2.38;;;5.50;99.90;;;;;;5059228;28;20024;-81
2022/09/21 03:50:36;;;;;;;3.33;2.60;;;5.50;99.90;;;;;;5089782;28;20032;-80
2022/09/21 03:53:02;;;;;;;4.65;2.05;;;5.50;99.90;;;;;;5074779;28;20024;-81
2022/09/21 03:55:28;;;;;;;4.38;2.30;;;5.50;99.90;;;;;;5088974;28;20033;-81
2022/09/21 03:57:54;;;;;;;6.28;2.47;;;5.50;99.90;;;;;;5072173;28;20602;-81
2022/09/21 04:00:21;;;;;;;2.65;2.22;;;5.50;99.90;;;;;;5039563;28;20508;-79
2022/09/21 04:02:47;;;;;;;2.25;2.05;;;5.40;99.90;;;;;;5091087;28;20168;-82
2022/09/21 04:05:14;;;;;;;19.00;2.58;;;5.50;99.90;;;;;;5077296;28;20481;-81
2022/09/21 04:07:41;;;;;;;2.35;2.08;;;5.50;99.90;;;;;;5072053;28;20028;-80
2022/09/21 04:10:11;;;;;;;2.40;1.90;;;5.50;99.90;;;;;;5076302;28;20036;-79
2022/09/21 04:12:42;;;;;;;2.80;2.55;;;5.50;99.90;;;;;;5086061;28;20059;-81
2022/09/21 04:15:18;;;;;;;2.50;2.08;;;5.50;99.90;;;;;;5081074;28;20028;-80
2022/09/21 04:17:45;;;;;;;2.83;2.15;;;5.40;99.90;;;;;;5092549;28;20036;-81
2022/09/21 04:20:11;;;;;;;2.20;2.00;;;5.50;99.90;;;;;;5090032;28;20081;-81
2022/09/21 04:22:37;;;;;;;2.47;2.28;;;5.40;99.90;;;;;;5089409;28;20031;-80
2022/09/21 04:25:06;;;;;;;2.25;1.85;;;5.40;99.90;;;;;;5084709;28;20032;-80
2022/09/21 04:27:32;;;;;;;2.13;1.60;;;5.50;99.90;;;;;;5072369;28;20036;-81
2022/09/21 04:29:59;;;;;;;30.10;2.05;;;5.50;99.90;;;;;;5073693;28;20368;-81
2022/09/21 04:32:25;;;;;;;1.60;1.50;;;5.40;99.90;;;;;;5073912;28;20028;-82
2022/09/21 04:34:51;;;;;;;27.38;2.28;;;5.40;99.90;;;;;;5074197;28;20040;-83
2022/09/21 04:37:17;;;;;;;9.13;1.65;;;5.30;99.90;;;;;;5074861;28;20119;-81
2022/09/21 04:39:43;;;;;;;5.00;1.55;;;5.20;99.90;;;;;;5074562;28;20032;-81
2022/09/21 04:42:09;;;;;;;16.33;1.70;;;5.10;99.90;;;;;;5068749;28;20035;-82
2022/09/21 04:44:35;;;;;;;2.08;1.70;;;5.10;99.90;;;;;;5058448;28;20492;-82
2022/09/21 04:47:01;;;;;;;14.43;1.90;;;5.00;99.90;;;;;;5053257;28;20089;-82
2022/09/21 04:49:27;;;;;;;3.38;1.73;;;5.00;99.90;;;;;;5039570;28;20040;-81
2022/09/21 04:51:53;;;;;;;8.05;1.63;;;5.00;99.90;;;;;;5069091;28;20084;-78
2022/09/21 04:54:19;;;;;;;5.32;1.85;;;5.10;99.90;;;;;;5039875;28;20037;-79
2022/09/21 04:56:44;;;;;;;18.45;1.98;;;5.00;99.90;;;;;;5067360;28;20035;-81
2022/09/21 04:59:10;;;;;;;2.92;1.33;;;5.10;99.90;;;;;;5052553;28;20040;-82
2022/09/21 05:01:36;;;;;;;25.85;3.47;;;5.00;99.90;;;;;;5082082;28;20040;-79
2022/09/21 05:04:02;;;;;;;12.85;2.10;;;5.00;99.90;;;;;;5038519;28;20095;-83
2022/09/21 05:06:29;;;;;;;3.38;1.40;;;5.00;99.90;;;;;;5073151;28;20517;-82
2022/09/21 05:11:40;;;;;;;3.30;1.33;;;5.00;99.90;;;;;;5080977;28;20028;-81
2022/09/21 05:14:06;;;;;;;7.10;2.08;;;5.00;99.90;;;;;;5068449;28;20031;-82
2022/09/21 05:16:32;;;;;;;4.18;1.38;;;5.00;99.90;;;;;;5091096;28;20448;-82
2022/09/21 05:18:58;;;;;;;1.60;1.50;;;5.10;99.90;;;;;;5090192;28;20036;-81
2022/09/21 05:21:24;;;;;;;2.78;1.50;;;5.10;99.90;;;;;;5073523;28;20039;-80
2022/09/21 05:23:50;;;;;;;3.20;1.23;;;5.20;99.90;;;;;;5070768;28;20036;-82
2022/09/21 05:26:16;;;;;;;2.30;1.45;;;5.20;99.90;;;;;;5064323;28;20036;-81
2022/09/21 05:28:42;;;;;;;1.52;1.38;;;5.20;99.90;;;;;;5046845;28;20032;-81
2022/09/21 05:31:20;;;;;;;3.03;1.08;;;5.30;99.90;;;;;;5067965;28;20123;-81
2022/09/21 05:33:51;;;;;;;1.25;1.15;;;5.30;99.90;;;;;;5088094;28;20036;-80
2022/09/21 05:36:28;;;;;;;1.52;1.40;;;5.30;99.90;;;;;;5084100;28;20055;-80
2022/09/21 05:38:55;;;;;;;2.60;1.50;;;5.30;99.90;;;;;;5084822;28;20483;-80
2022/09/21 05:41:22;;;;;;;12.90;1.50;;;5.30;99.90;;;;;;5049351;28;20086;-80
2022/09/21 05:43:48;;;;;;;9.30;1.33;;;5.30;99.90;;;;;;5067088;28;20037;-80
2022/09/21 05:46:36;;;;;;;4.20;1.30;;;5.30;99.90;;;;;;5082734;28;20058;-80
2022/09/21 05:49:13;;;;;;;4.00;1.20;;;5.30;99.90;;;;;;5089672;28;20035;-80
2022/09/21 05:52:07;;;;;;;3.15;1.40;;;5.40;99.90;;;;;;5085339;28;20020;-80
2022/09/21 05:54:46;;;;;;;2.78;1.13;;;5.40;99.90;;;;;;5074943;28;20101;-80
2022/09/21 05:57:27;;;;;;;6.72;1.23;;;5.40;99.90;;;;;;5083947;28;20040;-80
2022/09/21 06:00:16;;;;;;;10.32;1.30;;;5.40;99.90;;;;;;5079882;28;20032;-80
2022/09/21 06:03:25;;;;;;;2.55;1.00;;;5.40;99.90;;;;;;5062622;28;20178;-80
2022/09/21 06:05:50;;;;;;;3.33;1.00;;;5.30;99.90;;;;;;5091740;28;20518;-80
2022/09/21 06:08:16;;;;;;;14.73;1.60;;;5.20;99.90;;;;;;5055907;28;20036;-80
2022/09/21 06:10:42;;;;;;;37.75;1.98;;;5.20;99.90;;;;;;5082327;28;20081;-80
2022/09/21 06:13:08;;;;;;;1.88;1.20;;;5.20;99.90;;;;;;5081861;28;20708;-80
2022/09/21 06:15:37;;;;;;;3.55;1.13;;;5.20;99.90;;;;;;5090378;28;20077;-80
2022/09/21 06:18:07;;;;;;;3.05;1.35;;;5.20;99.90;;;;;;5071495;28;20032;-80
2022/09/21 06:20:33;;;;;;;40.05;2.08;;;5.10;99.90;;;;;;5090483;28;20454;-80
2022/09/21 06:23:10;;;;;;;45.95;2.05;;;5.10;99.90;;;;;;5090661;28;20028;-80
2022/09/21 06:25:36;;;;;;;1.55;1.40;;;5.10;99.90;;;;;;5074914;28;20028;-79
2022/09/21 06:28:04;;;;;;;1.35;1.25;;;5.10;99.90;;;;;;5073592;28;20101;-80
2022/09/21 06:30:33;;;;;;;2.85;1.30;;;5.10;99.90;;;;;;5094777;28;20023;-80
2022/09/21 06:33:03;;;;;;;1.40;1.30;;;5.20;99.90;;;;;;5104963;28;20190;-80
2022/09/21 06:35:30;;;;;;;8.55;1.58;;;5.30;99.90;;;;;;5093471;28;20166;-81
2022/09/21 06:38:06;;;;;;;9.07;1.45;;;5.40;99.90;;;;;;5088952;28;20027;-81
2022/09/21 06:40:34;;;;;;;4.80;1.38;;;5.50;99.90;;;;;;5096372;28;20598;-81
2022/09/21 06:43:01;;;;;;;5.63;1.50;;;5.50;99.90;;;;;;5093146;28;20234;-81
2022/09/21 06:45:29;;;;;;;1.95;1.60;;;5.60;99.90;;;;;;5094164;28;20023;-81
2022/09/21 06:47:55;;;;;;;1.85;1.70;;;5.70;99.90;;;;;;5085283;28;20024;-81
2022/09/21 06:50:21;;;;;;;1.52;1.42;;;5.80;99.90;;;;;;5079264;28;20032;-81
2022/09/21 06:52:47;;;;;;;2.50;1.50;;;5.90;99.90;;;;;;5098493;28;20024;-81
2022/09/21 06:55:13;;;;;;;1.48;1.38;;;6.00;99.90;;;;;;5094746;28;20034;-81
2022/09/21 06:57:39;;;;;;;12.27;1.95;;;6.00;99.90;;;;;;5079714;28;20083;-81
2022/09/21 07:00:08;;;;;;;2.17;1.70;;;6.00;99.90;;;;;;5081142;28;20029;-80
2022/09/21 07:02:34;;;;;;;30.98;2.60;;;6.10;99.90;;;;;;5099184;28;20143;-81
2022/09/21 07:05:01;;;;;;;5.35;1.60;;;6.10;99.90;;;;;;5080406;28;20142;-80
2022/09/21 07:07:30;;;;;;;1.30;1.20;;;6.10;99.90;;;;;;5079318;28;20036;-80
2022/09/21 07:09:58;;;;;;;7.38;1.42;;;6.10;99.90;;;;;;5091847;28;20028;-80
2022/09/21 07:12:25;;;;;;;5.95;1.40;;;6.20;99.90;;;;;;5075219;28;20119;-81
2022/09/21 07:14:51;;;;;;;12.20;1.42;;;6.20;99.90;;;;;;5066533;28;20028;-80
2022/09/21 07:17:17;;;;;;;1.38;1.10;;;6.30;99.90;;;;;;5072743;28;20028;-81
2022/09/21 07:19:42;;;;;;;1.77;1.20;;;6.40;99.90;;;;;;5071275;28;20036;-81
2022/09/21 07:22:08;;;;;;;2.05;1.48;;;6.50;99.90;;;;;;5082656;28;20033;-81
2022/09/21 07:24:34;;;;;;;5.35;1.85;;;6.40;99.90;;;;;;5049319;28;20024;-80
2022/09/21 07:26:59;;;;;;;4.10;1.20;;;6.50;99.90;;;;;;5079077;28;20028;-81
2022/09/21 07:29:25;;;;;;;1.83;1.20;;;6.60;99.90;;;;;;5072842;28;20051;-81
2022/09/21 07:31:51;;;;;;;3.78;1.20;;;6.60;99.90;;;;;;5090691;28;20028;-81
2022/09/21 07:34:17;;;;;;;1.10;1.00;;;6.70;99.90;;;;;;5091561;28;20025;-79
2022/09/21 07:36:42;;;;;;;2.10;1.00;;;6.80;99.90;;;;;;5080011;28;20033;-79
2022/09/21 07:39:09;;;;;;;1.13;1.02;;;6.80;99.90;;;;;;5071296;28;20024;-80
2022/09/21 07:41:35;;;;;;;1.40;1.13;;;6.80;99.90;;;;;;5087084;28;20062;-81
2022/09/21 07:44:02;;;;;;;3.15;1.35;;;6.90;99.90;;;;;;5071588;28;20050;-78
2022/09/21 07:46:28;;;;;;;3.35;1.80;;;7.00;99.90;;;;;;5072286;28;20064;-79
2022/09/21 07:48:55;;;;;;;2.60;2.25;;;7.10;99.90;;;;;;5087115;28;20063;-79
2022/09/21 07:51:21;;;;;;;3.05;2.75;;;7.10;99.90;;;;;;5090481;28;20031;-79
2022/09/21 07:53:52;;;;;;;6.18;2.22;;;7.30;99.90;;;;;;5073984;28;20052;-79
2022/09/21 07:56:18;;;;;;;9.95;2.75;;;7.30;99.90;;;;;;5085922;28;20040;-80
2022/09/21 08:01:29;;;;;;;2.35;2.15;;;7.30;99.90;;;;;;5088549;28;20065;-80
2022/09/21 08:03:56;;;;;;;2.95;2.20;;;7.40;99.90;;;;;;5085997;28;20031;-80
2022/09/21 08:06:24;;;;;;;1.88;1.77;;;7.50;99.90;;;;;;5087238;28;20043;-80
2022/09/21 08:08:50;;;;;;;4.13;1.92;;;7.70;99.90;;;;;;5072392;28;20032;-81
2022/09/21 08:11:18;;;;;;;8.93;2.00;;;7.70;99.90;;;;;;5074021;28;20111;-81
2022/09/21 08:13:44;;;;;;;1.40;1.30;;;7.70;99.90;;;;;;5073561;28;20028;-82
2022/09/21 08:16:10;;;;;;;3.08;1.58;;;7.90;99.90;;;;;;5085572;28;20084;-81
2022/09/21 08:18:39;;;;;;;1.60;1.50;;;7.90;99.90;;;;;;5067592;28;20675;-81
2022/09/21 08:21:05;;;;;;;4.68;1.50;;;8.00;99.90;;;;;;5093081;28;20115;-81
2022/09/21 08:23:31;;;;;;;1.67;1.58;;;8.20;99.90;;;;;;5069854;28;20093;-80
2022/09/21 08:26:01;;;;;;;2.55;2.35;;;8.20;99.90;;;;;;5091860;28;20095;-81
2022/09/21 08:28:29;;;;;;;2.60;2.20;;;8.20;99.90;;;;;;5079802;28;20079;-80
2022/09/21 08:30:59;;;;;;;2.80;2.50;;;8.20;99.90;;;;;;5078826;28;20443;-80
2022/09/21 08:33:26;;;;;;;3.17;2.55;;;8.40;99.90;;;;;;5081419;28;20025;-80
2022/09/21 08:35:57;;;;;;;3.13;2.70;;;8.30;99.90;;;;;;5078436;28;20056;-80
2022/09/21 08:38:23;;;;;;;5.03;2.72;;;8.30;99.90;;;;;;5070650;28;20115;-80
2022/09/21 08:40:50;;;;;;;4.47;2.33;;;8.40;99.90;;;;;;5090588;28;20043;-79
2022/09/21 08:43:39;;;;;;;2.30;1.98;;;8.40;99.90;;;;;;5089553;28;20543;-80
2022/09/21 08:46:17;;;;;;;2.28;1.60;;;8.50;99.90;;;;;;5082248;28;20481;-81
2022/09/21 08:49:05;;;;;;;1.98;1.80;;;8.50;99.90;;;;;;5083636;28;20477;-80
2022/09/21 08:51:37;;;;;;;1.80;1.70;;;8.60;99.90;;;;;;5085959;28;20106;-79
2022/09/21 08:54:21;;;;;;;1.70;1.60;;;8.70;99.90;;;;;;5079960;28;20077;-80
2022/09/21 08:56:47;;;;;;;1.70;1.50;;;8.70;99.90;;;;;;5086380;28;20032;-80
2022/09/21 08:59:14;;;;;;;1.83;1.65;;;8.90;99.90;;;;;;5064383;28;20093;-80
2022/09/21 09:02:19;;;;;;;1.98;1.88;;;9.00;99.90;;;;;;5084742;28;20047;-81
2022/09/21 09:04:51;;;;;;;2.40;2.20;;;9.20;99.90;;;;;;5068795;28;20640;-81
2022/09/21 09:07:35;;;;;;;2.83;2.40;;;9.40;99.90;;;;;;5088190;28;20021;-82
2022/09/21 09:10:20;;;;;;;2.33;2.13;;;9.50;99.90;;;;;;5085483;28;20048;-82
2022/09/21 09:13:04;;;;;;;2.83;2.63;;;9.60;99.90;;;;;;5082147;28;20485;-82
2022/09/21 09:16:01;;;;;;;8.93;6.25;;;9.50;99.90;;;;;;5070812;28;20107;-81
2022/09/21 09:18:42;;;;;;;3.47;2.50;;;9.50;99.90;;;;;;5073565;28;20052;-82
2022/09/21 09:21:21;;;;;;;2.33;2.13;;;9.60;99.90;;;;;;5078930;28;20069;-82
2022/09/21 09:24:02;;;;;;;3.28;2.47;;;9.70;99.90;;;;;;5059674;28;20035;-82
2022/09/21 09:26:31;;;;;;;2.63;2.20;;;9.80;99.90;;;;;;5070118;28;20048;-81
2022/09/21 09:29:15;;;;;;;2.67;2.40;;;9.90;99.90;;;;;;5081003;28;20512;-83
2022/09/21 09:31:41;;;;;;;2.80;2.30;;;9.90;99.90;;;;;;5084411;28;20032;-82
2022/09/21 09:34:13;;;;;;;2.63;2.30;;;9.80;99.90;;;;;;5066186;28;20024;-81
2022/09/21 09:36:44;;;;;;;2.60;2.40;;;9.50;99.90;;;;;;5078239;28;20032;-81
2022/09/21 09:39:14;;;;;;;3.17;2.88;;;9.40;99.90;;;;;;5076995;28;20050;-81
2022/09/21 09:42:09;;;;;;;2.30;2.10;;;9.50;99.90;;;;;;5069715;28;20043;-80
2022/09/21 09:45:06;;;;;;;2.00;1.88;;;9.60;99.90;;;;;;5068374;28;20028;-79
2022/09/21 09:47:51;;;;;;;;;;;9.70;99.90;;;;;;5087289;28;20020;-81
2022/09/21 09:50:32;;;;;;;2.70;1.88;;;9.80;99.90;;;;;;5066017;28;20462;-81
2022/09/21 09:53:04;;;;;;;1.95;1.75;;;9.80;99.90;;;;;;5085979;28;20028;-79
2022/09/21 09:55:39;;;;;;;3.40;2.25;;;9.90;99.90;;;;;;5070058;28;20028;-80
2022/09/21 09:58:35;;;;;;;2.22;1.98;;;10.00;99.90;;;;;;5080797;28;20028;-78
2022/09/21 10:01:02;;;;;;;;;;;10.00;99.90;;;;;;5082794;28;20119;-81
2022/09/21 10:03:27;;;;;;;;;;;10.20;99.90;;;;;;5088901;28;19978;-81
2022/09/21 10:05:53;;;;;;;;;;;10.30;99.90;;;;;;5086414;28;19989;-80
2022/09/21 10:08:30;;;;;;;1.92;0.60;;;10.40;99.90;;;;;;5061120;28;19916;-82
2022/09/21 10:10:56;;;;;;;2.05;0.68;;;10.50;99.90;;;;;;5090371;28;20399;-82
2022/09/21 10:13:33;;;;;;;2.00;0.80;;;10.70;99.90;;;;;;5092194;28;20027;-81
2022/09/21 10:16:01;;;;;;;1.67;0.80;;;10.80;99.90;;;;;;5061624;28;20031;-79
2022/09/21 10:18:36;;;;;;;3.33;0.85;;;10.90;99.90;;;;;;5078241;28;20029;-80
2022/09/21 10:21:04;;;;;;;2.83;1.48;;;11.00;99.90;;;;;;5078859;28;20671;-79
2022/09/21 10:23:31;;;;;;;2.10;1.00;;;11.10;99.90;;;;;;5072683;28;20025;-80
2022/09/21 10:26:09;;;;;;;2.60;1.10;;;11.20;99.90;;;;;;5084623;28;20032;-80
2022/09/21 10:28:35;;;;;;;3.70;1.00;;;11.30;99.90;;;;;;5073838;28;20020;-80
2022/09/21 10:31:11;;;;;;;2.13;1.40;;;11.40;99.90;;;;;;5065753;28;20649;-81
2022/09/21 10:34:03;;;;;;;1.48;0.98;;;11.40;99.90;;;;;;5080718;28;20029;-82
2022/09/21 10:36:32;;;;;;;2.22;1.05;;;11.50;99.90;;;;;;5040915;28;20024;-80
2022/09/21 10:39:17;;;;;;;2.83;1.08;;;11.60;99.90;;;;;;5075533;28;20044;-81
2022/09/21 10:41:48;;;;;;;1.15;1.00;;;11.60;99.90;;;;;;5077020;28;20040;-82
2022/09/21 10:44:17;;;;;;;1.85;1.10;;;11.60;99.90;;;;;;5080929;28;20032;-81
2022/09/21 10:46:44;;;;;;;3.42;0.82;;;11.70;99.90;;;;;;5081180;28;20038;-82
2022/09/21 10:49:30;;;;;;;1.02;0.80;;;11.70;99.90;;;;;;5082738;28;20024;-80
2022/09/21 10:51:57;;;;;;;;;;;11.70;99.90;;;;;;5073784;28;20036;-81
2022/09/21 10:54:30;;;;;;;1.40;0.50;;;11.80;99.90;;;;;;5077993;28;19916;-82
2022/09/21 10:57:06;;;;;;;2.70;1.13;;;11.80;99.90;;;;;;5080687;28;20408;-80
2022/09/21 10:59:34;;;;;;;2.03;0.93;;;11.90;99.90;;;;;;5063327;28;20123;-81
2022/09/21 11:02:01;;;;;;;3.33;1.00;;;11.90;99.90;;;;;;5046145;28;20039;-80
2022/09/21 11:04:39;;;;;;;1.75;0.70;;;12.00;99.90;;;;;;5079795;28;20029;-80
2022/09/21 11:07:19;;;;;;;3.95;1.42;;;12.00;99.90;;;;;;5078825;28;20020;-80
2022/09/21 11:09:58;;;;;;;7.65;1.77;;;12.10;99.90;;;;;;5087344;28;20035;-80
2022/09/21 11:12:35;;;;;;;1.98;0.90;;;12.30;99.90;;;;;;5075934;28;20039;-82
2022/09/21 11:15:17;;;;;;;1.45;0.60;;;12.30;99.90;;;;;;5075172;28;20071;-81
2022/09/21 11:18:04;;;;;;;1.52;1.13;;;12.40;99.90;;;;;;5084907;28;20025;-81
2022/09/21 11:20:51;;;;;;;1.25;0.55;;;12.40;99.90;;;;;;5082245;28;20024;-79
2022/09/21 11:23:44;;;;;;;1.75;1.10;;;12.50;99.90;;;;;;5078657;28;20037;-78
2022/09/21 11:26:36;;;;;;;2.22;0.50;;;12.50;99.90;;;;;;5082827;28;20058;-78
2022/09/21 11:29:05;;;;;;;1.17;0.50;;;12.70;99.90;;;;;;5085558;28;20115;-80
2022/09/21 11:31:40;;;;;;;1.48;0.43;;;12.80;99.90;;;;;;5078887;28;20031;-79
2022/09/21 11:34:28;;;;;;;1.48;0.57;;;12.90;99.90;;;;;;5077961;28;20028;-78
2022/09/21 11:37:21;;;;;;;1.08;0.60;;;13.00;99.90;;;;;;5089131;28;20040;-79
2022/09/21 11:39:56;;;;;;;2.72;0.52;;;13.10;99.90;;;;;;5077819;28;20028;-79
2022/09/21 11:42:24;;;;;;;1.33;0.70;;;13.20;99.90;;;;;;5082512;28;20028;-81
2022/09/21 11:44:57;;;;;;;0.28;0.20;;;13.30;99.90;;;;;;5091715;28;20021;-79
2022/09/21 11:47:29;;;;;;;0.90;0.50;;;13.50;99.90;;;;;;5079392;28;20025;-78
2022/09/21 11:50:14;;;;;;;1.65;0.45;;;13.60;99.90;;;;;;5083763;28;20024;-78
2022/09/21 11:53:24;;;;;;;2.85;0.70;;;13.70;99.90;;;;;;5085297;28;20028;-80
2022/09/21 11:55:56;;;;;;;1.45;0.68;;;13.90;99.90;;;;;;5069980;28;20043;-80
2022/09/21 11:58:45;;;;;;;1.10;0.60;;;14.20;99.90;;;;;;5090166;28;20027;-79
2022/09/21 12:01:49;;;;;;;0.95;0.40;;;14.50;99.90;;;;;;5071509;28;20035;-81
2022/09/21 12:04:34;;;;;;;3.13;0.40;;;14.60;99.90;;;;;;5078275;28;20029;-80
2022/09/21 12:07:17;;;;;;;0.68;0.40;;;14.70;99.90;;;;;;5086197;28;20479;-79
2022/09/21 12:09:58;;;;;;;0.60;0.40;;;14.60;99.90;;;;;;5090803;28;20025;-79
2022/09/21 12:12:43;;;;;;;1.85;0.50;;;14.60;99.90;;;;;;5083407;28;20024;-79
2022/09/21 12:15:18;;;;;;;0.98;0.50;;;14.60;97.80;;;;;;5084646;28;20020;-80
2022/09/21 12:17:57;;;;;;;2.20;0.80;;;14.50;99.90;;;;;;5079309;28;20055;-80
2022/09/21 12:20:46;;;;;;;0.50;0.50;;;14.50;99.90;;;;;;5078451;28;20090;-79
2022/09/21 12:23:30;;;;;;;1.10;0.70;;;14.30;99.90;;;;;;5081604;28;20038;-81
2022/09/21 12:26:00;;;;;;;2.15;1.00;;;14.40;99.90;;;;;;5090395;28;20059;-80
2022/09/21 12:28:40;;;;;;;2.28;0.70;;;14.30;99.90;;;;;;5086891;28;20034;-80
2022/09/21 12:31:56;;;;;;;2.20;1.00;;;14.40;99.90;;;;;;5083250;28;20021;-79
2022/09/21 12:34:29;;;;;;;1.55;1.00;;;14.40;99.90;;;;;;5075909;28;20074;-79
2022/09/21 12:37:30;;;;;;;2.95;0.70;;;14.40;99.90;;;;;;5074232;28;20028;-79
2022/09/21 12:40:30;;;;;;;4.63;1.20;;;14.40;99.90;;;;;;5077621;28;20143;-79
2022/09/21 12:43:14;;;;;;;0.90;0.70;;;14.40;99.90;;;;;;5084623;28;20107;-80
2022/09/21 12:45:52;;;;;;;1.73;0.90;;;14.40;99.90;;;;;;5089589;28;20028;-80
2022/09/21 12:48:37;;;;;;;2.22;0.82;;;14.40;99.90;;;;;;5085570;28;20025;-79
2022/09/21 12:51:22;;;;;;;2.55;0.70;;;14.40;99.90;;;;;;5084938;28;20024;-80
2022/09/21 12:53:53;;;;;;;1.42;0.77;;;14.50;99.90;;;;;;5087069;28;20047;-80
2022/09/21 12:56:42;;;;;;;2.28;0.82;;;14.50;99.90;;;;;;5080240;28;20669;-79
2022/09/21 12:59:26;;;;;;;3.15;0.80;;;14.60;99.90;;;;;;5080193;28;20384;-79
2022/09/21 13:02:23;;;;;;;2.30;0.63;;;14.50;99.90;;;;;;5076380;28;20040;-79
2022/09/21 13:05:04;;;;;;;2.67;0.98;;;14.50;99.90;;;;;;5053769;28;20086;-77
2022/09/21 13:07:39;;;;;;;1.40;0.63;;;14.40;99.90;;;;;;5080696;28;20032;-79
2022/09/21 13:10:20;;;;;;;1.88;0.80;;;14.30;99.90;;;;;;5078517;28;20128;-79
2022/09/21 13:12:58;;;;;;;1.17;0.80;;;14.20;99.90;;;;;;5078004;28;20152;-79
2022/09/21 13:15:40;;;;;;;3.33;1.00;;;14.10;99.90;;;;;;5058281;28;20031;-79
2022/09/21 13:18:22;;;;;;;1.00;0.68;;;14.00;99.90;;;;;;5091449;28;20039;-79
2022/09/21 13:20:50;;;;;;;1.85;1.00;;;13.80;99.90;;;;;;5092643;28;20036;-80
2022/09/21 13:23:23;;;;;;;1.80;0.50;;;13.80;99.90;;;;;;5089904;28;20056;-80
2022/09/21 13:25:59;;;;;;;2.45;0.80;;;13.80;99.90;;;;;;5080574;28;20060;-81
2022/09/21 13:29:02;;;;;;;1.85;0.50;;;13.70;99.90;;;;;;5097105;28;20191;-82
2022/09/21 13:31:48;;;;;;;0.30;0.30;;;13.70;99.90;;;;;;5089780;28;21250;-81
2022/09/21 13:34:14;;;;;;;;;;;13.70;99.90;;;;;;5064989;28;20437;-80